sensor_id;sensor_type;location;lat;lon;timestamp;pressure;altitude;pressure_sealevel;temperature;humidity
59939;BME280;45801;51.810;19.444;2022-08-05T00:01:00;99245.20;;;20.04;62.60
59939;BME280;45801;51.810;19.444;2022-08-05T00:03:26;99245.74;;;20.05;62.47
59939;BME280;45801;51.810;19.444;2022-08-05T00:05:52;99239.87;;;20.03;62.49
59939;BME280;45801;51.810;19.444;2022-08-05T00:08:17;99237.73;;;20.01;62.66
59939;BME280;45801;51.810;19.444;2022-08-05T00:10:44;99240.04;;;20.02;62.84
59939;BME280;45801;51.810;19.444;2022-08-05T00:13:10;99238.26;;;20.01;62.40
59939;BME280;45801;51.810;19.444;2022-08-05T00:15:36;99237.88;;;19.99;62.15
59939;BME280;45801;51.810;19.444;2022-08-05T00:18:02;99236.80;;;19.95;62.41
59939;BME280;45801;51.810;19.444;2022-08-05T00:20:27;99233.77;;;19.92;62.41
59939;BME280;45801;51.810;19.444;2022-08-05T00:22:53;99235.87;;;19.88;62.27
59939;BME280;45801;51.810;19.444;2022-08-05T00:25:19;99234.26;;;19.85;62.42
59939;BME280;45801;51.810;19.444;2022-08-05T00:27:44;99235.13;;;19.83;62.60
59939;BME280;45801;51.810;19.444;2022-08-05T00:30:11;99233.15;;;19.79;63.14
59939;BME280;45801;51.810;19.444;2022-08-05T00:32:36;99232.58;;;19.76;62.82
59939;BME280;45801;51.810;19.444;2022-08-05T00:35:02;99228.27;;;19.72;63.20
59939;BME280;45801;51.810;19.444;2022-08-05T00:37:28;99225.23;;;19.69;63.15
59939;BME280;45801;51.810;19.444;2022-08-05T00:39:54;99228.95;;;19.66;63.35
59939;BME280;45801;51.810;19.444;2022-08-05T00:42:33;99227.16;;;19.64;63.39
59939;BME280;45801;51.810;19.444;2022-08-05T00:45:01;99224.11;;;19.61;63.42
59939;BME280;45801;51.810;19.444;2022-08-05T00:47:27;99222.49;;;19.58;63.81
59939;BME280;45801;51.810;19.444;2022-08-05T00:49:53;99216.45;;;19.56;63.44
59939;BME280;45801;51.810;19.444;2022-08-05T00:52:18;99216.80;;;19.55;63.86
59939;BME280;45801;51.810;19.444;2022-08-05T00:54:44;99217.87;;;19.55;64.00
59939;BME280;45801;51.810;19.444;2022-08-05T00:57:10;99219.98;;;19.55;64.34
59939;BME280;45801;51.810;19.444;2022-08-05T00:59:36;99214.13;;;19.54;64.05
59939;BME280;45801;51.810;19.444;2022-08-05T01:02:02;99213.23;;;19.54;64.06
59939;BME280;45801;51.810;19.444;2022-08-05T01:04:28;99215.00;;;19.52;64.20
59939;BME280;45801;51.810;19.444;2022-08-05T01:06:54;99213.92;;;19.52;63.86
59939;BME280;45801;51.810;19.444;2022-08-05T01:09:20;99207.34;;;19.49;64.08
59939;BME280;45801;51.810;19.444;2022-08-05T01:11:49;99209.10;;;19.47;64.09
59939;BME280;45801;51.810;19.444;2022-08-05T01:14:46;99208.17;;;19.43;64.11
59939;BME280;45801;51.810;19.444;2022-08-05T01:17:26;99206.38;;;19.38;64.29
59939;BME280;45801;51.810;19.444;2022-08-05T01:30:44;99200.96;;;19.26;65.03
59939;BME280;45801;51.810;19.444;2022-08-05T01:33:12;99193.84;;;19.24;64.96
59939;BME280;45801;51.810;19.444;2022-08-05T01:35:40;99189.55;;;19.21;64.92
59939;BME280;45801;51.810;19.444;2022-08-05T01:38:09;99192.03;;;19.19;64.99
59939;BME280;45801;51.810;19.444;2022-08-05T01:40:36;99187.05;;;19.19;65.09
59939;BME280;45801;51.810;19.444;2022-08-05T01:43:03;99188.98;;;19.18;64.97
59939;BME280;45801;51.810;19.444;2022-08-05T01:45:30;99188.98;;;19.18;64.58
59939;BME280;45801;51.810;19.444;2022-08-05T01:47:59;99184.73;;;19.17;64.54
59939;BME280;45801;51.810;19.444;2022-08-05T01:50:28;99179.92;;;19.15;64.62
59939;BME280;45801;51.810;19.444;2022-08-05T01:52:59;99174.76;;;19.14;64.78
59939;BME280;45801;51.810;19.444;2022-08-05T01:55:28;99173.52;;;19.12;64.68
59939;BME280;45801;51.810;19.444;2022-08-05T01:57:56;99171.53;;;19.09;64.56
59939;BME280;45801;51.810;19.444;2022-08-05T02:00:23;99174.52;;;19.07;64.49
59939;BME280;45801;51.810;19.444;2022-08-05T02:02:56;99172.55;;;19.04;64.50
59939;BME280;45801;51.810;19.444;2022-08-05T02:05:28;99173.42;;;19.01;64.70
59939;BME280;45801;51.810;19.444;2022-08-05T02:07:56;99170.19;;;18.98;64.79
59939;BME280;45801;51.810;19.444;2022-08-05T02:10:24;99172.66;;;18.96;64.74
59939;BME280;45801;51.810;19.444;2022-08-05T02:12:54;99173.17;;;18.93;64.72
59939;BME280;45801;51.810;19.444;2022-08-05T02:15:24;99168.19;;;18.91;64.75
59939;BME280;45801;51.810;19.444;2022-08-05T02:17:56;99170.11;;;18.88;64.82
59939;BME280;45801;51.810;19.444;2022-08-05T02:20:25;99167.41;;;18.86;64.95
59939;BME280;45801;51.810;19.444;2022-08-05T02:22:58;99159.95;;;18.85;65.00
59939;BME280;45801;51.810;19.444;2022-08-05T02:25:33;99155.33;;;18.85;65.38
59939;BME280;45801;51.810;19.444;2022-08-05T02:28:01;99151.63;;;18.86;65.44
59939;BME280;45801;51.810;19.444;2022-08-05T02:30:38;99151.29;;;18.87;65.68
59939;BME280;45801;51.810;19.444;2022-08-05T02:33:07;99146.31;;;18.88;65.79
59939;BME280;45801;51.810;19.444;2022-08-05T02:35:34;99149.34;;;18.88;65.41
59939;BME280;45801;51.810;19.444;2022-08-05T02:38:01;99147.39;;;18.88;65.51
59939;BME280;45801;51.810;19.444;2022-08-05T02:40:28;99150.20;;;18.86;65.61
59939;BME280;45801;51.810;19.444;2022-08-05T02:42:57;99149.84;;;18.85;65.44
59939;BME280;45801;51.810;19.444;2022-08-05T02:45:25;99149.63;;;18.83;65.57
59939;BME280;45801;51.810;19.444;2022-08-05T02:47:53;99146.95;;;18.81;65.25
59939;BME280;45801;51.810;19.444;2022-08-05T02:50:21;99147.29;;;18.80;65.40
59939;BME280;45801;51.810;19.444;2022-08-05T02:52:48;99145.67;;;18.78;65.57
59939;BME280;45801;51.810;19.444;2022-08-05T02:55:14;99143.89;;;18.76;65.55
59939;BME280;45801;51.810;19.444;2022-08-05T02:57:41;99144.05;;;18.75;65.57
59939;BME280;45801;51.810;19.444;2022-08-05T03:00:11;99137.66;;;18.73;65.66
59939;BME280;45801;51.810;19.444;2022-08-05T03:02:39;99136.21;;;18.71;65.76
59939;BME280;45801;51.810;19.444;2022-08-05T03:05:08;99131.41;;;18.71;66.02
59939;BME280;45801;51.810;19.444;2022-08-05T03:07:37;99129.81;;;18.70;66.31
59939;BME280;45801;51.810;19.444;2022-08-05T03:10:03;99129.11;;;18.71;66.30
59939;BME280;45801;51.810;19.444;2022-08-05T03:12:33;99129.48;;;18.72;66.67
59939;BME280;45801;51.810;19.444;2022-08-05T03:14:59;99126.64;;;18.71;66.93
59939;BME280;45801;51.810;19.444;2022-08-05T03:17:25;99125.75;;;18.71;66.67
59939;BME280;45801;51.810;19.444;2022-08-05T03:19:51;99127.70;;;18.71;66.60
59939;BME280;45801;51.810;19.444;2022-08-05T03:22:17;99126.10;;;18.71;66.56
59939;BME280;45801;51.810;19.444;2022-08-05T03:24:45;99128.75;;;18.70;66.75
59939;BME280;45801;51.810;19.444;2022-08-05T03:27:11;99123.95;;;18.69;66.67
59939;BME280;45801;51.810;19.444;2022-08-05T03:29:37;99127.67;;;18.69;66.73
59939;BME280;45801;51.810;19.444;2022-08-05T03:32:07;99127.84;;;18.67;66.73
59939;BME280;45801;51.810;19.444;2022-08-05T03:34:33;99126.94;;;18.67;67.02
59939;BME280;45801;51.810;19.444;2022-08-05T03:37:01;99128.72;;;18.66;66.93
59939;BME280;45801;51.810;19.444;2022-08-05T03:39:27;99127.46;;;18.65;66.99
59939;BME280;45801;51.810;19.444;2022-08-05T03:41:54;99123.75;;;18.66;67.25
59939;BME280;45801;51.810;19.444;2022-08-05T03:44:20;99127.14;;;18.68;67.48
59939;BME280;45801;51.810;19.444;2022-08-05T03:46:46;99124.49;;;18.70;67.52
59939;BME280;45801;51.810;19.444;2022-08-05T03:49:12;99126.45;;;18.72;67.87
59939;BME280;45801;51.810;19.444;2022-08-05T03:54:36;99127.38;;;18.76;67.90
59939;BME280;45801;51.810;19.444;2022-08-05T03:57:09;99122.41;;;18.76;67.81
59939;BME280;45801;51.810;19.444;2022-08-05T03:59:43;99121.00;;;18.77;67.68
59939;BME280;45801;51.810;19.444;2022-08-05T04:02:11;99124.03;;;18.78;68.24
59939;BME280;45801;51.810;19.444;2022-08-05T04:04:41;99122.61;;;18.78;68.08
59939;BME280;45801;51.810;19.444;2022-08-05T04:07:08;99117.29;;;18.79;68.00
59939;BME280;45801;51.810;19.444;2022-08-05T04:09:35;99117.66;;;18.80;68.34
59939;BME280;45801;51.810;19.444;2022-08-05T04:12:02;99114.46;;;18.80;67.89
59939;BME280;45801;51.810;19.444;2022-08-05T04:14:29;99116.96;;;18.82;68.40
59939;BME280;45801;51.810;19.444;2022-08-05T04:16:59;99114.51;;;18.84;68.58
59939;BME280;45801;51.810;19.444;2022-08-05T04:19:27;99113.12;;;18.87;68.72
59939;BME280;45801;51.810;19.444;2022-08-05T04:21:53;99113.34;;;18.90;68.93
59939;BME280;45801;51.810;19.444;2022-08-05T04:24:18;99110.70;;;18.94;69.12
59939;BME280;45801;51.810;19.444;2022-08-05T04:26:44;99108.77;;;18.97;68.84
59939;BME280;45801;51.810;19.444;2022-08-05T04:29:10;99106.32;;;19.01;68.89
59939;BME280;45801;51.810;19.444;2022-08-05T04:31:36;99102.08;;;19.04;68.91
59939;BME280;45801;51.810;19.444;2022-08-05T04:34:02;99102.46;;;19.07;69.01
59939;BME280;45801;51.810;19.444;2022-08-05T04:36:28;99103.90;;;19.11;68.98
59939;BME280;45801;51.810;19.444;2022-08-05T04:38:54;99103.02;;;19.13;69.13
59939;BME280;45801;51.810;19.444;2022-08-05T04:41:20;99107.49;;;19.15;68.89
59939;BME280;45801;51.810;19.444;2022-08-05T04:43:45;99108.38;;;19.17;69.66
59939;BME280;45801;51.810;19.444;2022-08-05T04:46:11;99111.59;;;19.20;69.52
59939;BME280;45801;51.810;19.444;2022-08-05T04:48:37;99112.88;;;19.25;69.76
59939;BME280;45801;51.810;19.444;2022-08-05T04:51:02;99113.80;;;19.30;69.78
59939;BME280;45801;51.810;19.444;2022-08-05T04:53:28;99113.65;;;19.35;70.00
59939;BME280;45801;51.810;19.444;2022-08-05T04:55:54;99114.73;;;19.41;70.05
59939;BME280;45801;51.810;19.444;2022-08-05T04:58:20;99119.75;;;19.46;70.00
59939;BME280;45801;51.810;19.444;2022-08-05T05:00:45;99119.60;;;19.50;69.67
59939;BME280;45801;51.810;19.444;2022-08-05T05:03:11;99113.75;;;19.54;69.08
59939;BME280;45801;51.810;19.444;2022-08-05T05:05:37;99113.24;;;19.59;68.64
59939;BME280;45801;51.810;19.444;2022-08-05T05:08:06;99118.42;;;19.65;68.41
59939;BME280;45801;51.810;19.444;2022-08-05T05:10:37;99119.34;;;19.69;68.18
59939;BME280;45801;51.810;19.444;2022-08-05T05:13:03;99122.73;;;19.74;67.97
59939;BME280;45801;51.810;19.444;2022-08-05T05:15:29;99122.24;;;19.78;68.12
59939;BME280;45801;51.810;19.444;2022-08-05T05:17:55;99121.05;;;19.84;67.77
59939;BME280;45801;51.810;19.444;2022-08-05T05:20:20;99120.52;;;19.90;67.50
59939;BME280;45801;51.810;19.444;2022-08-05T05:22:46;99117.17;;;19.97;68.06
59939;BME280;45801;51.810;19.444;2022-08-05T05:25:12;99116.67;;;20.04;67.96
59939;BME280;45801;51.810;19.444;2022-08-05T05:27:39;99118.64;;;20.09;67.95
59939;BME280;45801;51.810;19.444;2022-08-05T05:30:05;99117.23;;;20.15;68.03
59939;BME280;45801;51.810;19.444;2022-08-05T05:32:32;99118.84;;;20.20;67.58
59939;BME280;45801;51.810;19.444;2022-08-05T05:34:57;99115.48;;;20.24;67.46
59939;BME280;45801;51.810;19.444;2022-08-05T05:37:24;99116.73;;;20.28;66.60
59939;BME280;45801;51.810;19.444;2022-08-05T05:39:50;99117.09;;;20.35;66.48
59939;BME280;45801;51.810;19.444;2022-08-05T05:42:16;99117.48;;;20.40;66.66
59939;BME280;45801;51.810;19.444;2022-08-05T05:44:41;99114.63;;;20.45;66.48
59939;BME280;45801;51.810;19.444;2022-08-05T05:47:07;99114.80;;;20.48;66.17
59939;BME280;45801;51.810;19.444;2022-08-05T05:49:33;99116.23;;;20.53;66.16
59939;BME280;45801;51.810;19.444;2022-08-05T05:51:59;99117.49;;;20.56;66.56
59939;BME280;45801;51.810;19.444;2022-08-05T05:54:24;99112.86;;;20.61;66.33
59939;BME280;45801;51.810;19.444;2022-08-05T05:56:50;99110.94;;;20.67;66.11
59939;BME280;45801;51.810;19.444;2022-08-05T05:59:16;99111.84;;;20.74;66.01
59939;BME280;45801;51.810;19.444;2022-08-05T06:01:41;99109.34;;;20.82;65.79
59939;BME280;45801;51.810;19.444;2022-08-05T06:04:09;99112.02;;;20.89;65.61
59939;BME280;45801;51.810;19.444;2022-08-05T06:06:35;99112.38;;;20.96;65.02
59939;BME280;45801;51.810;19.444;2022-08-05T06:09:04;99117.34;;;21.05;64.88
59939;BME280;45801;51.810;19.444;2022-08-05T06:11:31;99117.35;;;21.11;64.57
59939;BME280;45801;51.810;19.444;2022-08-05T06:13:58;99117.16;;;21.18;63.83
59939;BME280;45801;51.810;19.444;2022-08-05T06:16:24;99118.75;;;21.25;63.42
59939;BME280;45801;51.810;19.444;2022-08-05T06:18:51;99116.78;;;21.32;63.14
59939;BME280;45801;51.810;19.444;2022-08-05T06:21:17;99120.33;;;21.39;63.28
59939;BME280;45801;51.810;19.444;2022-08-05T06:23:42;99118.70;;;21.46;62.70
59939;BME280;45801;51.810;19.444;2022-08-05T06:26:08;99110.70;;;21.53;62.49
59939;BME280;45801;51.810;19.444;2022-08-05T06:28:34;99112.63;;;21.60;62.56
59939;BME280;45801;51.810;19.444;2022-08-05T06:31:01;99110.13;;;21.66;62.76
59939;BME280;45801;51.810;19.444;2022-08-05T06:33:27;99111.52;;;21.73;63.10
59939;BME280;45801;51.810;19.444;2022-08-05T06:35:53;99105.61;;;21.79;63.35
59939;BME280;45801;51.810;19.444;2022-08-05T06:38:19;99104.52;;;21.84;63.17
59939;BME280;45801;51.810;19.444;2022-08-05T06:40:45;99100.58;;;21.90;63.49
59939;BME280;45801;51.810;19.444;2022-08-05T06:43:11;99099.48;;;21.96;63.51
59939;BME280;45801;51.810;19.444;2022-08-05T06:45:38;99102.67;;;22.03;63.28
59939;BME280;45801;51.810;19.444;2022-08-05T06:48:04;99102.44;;;22.10;62.98
59939;BME280;45801;51.810;19.444;2022-08-05T06:50:29;99099.73;;;22.17;63.33
59939;BME280;45801;51.810;19.444;2022-08-05T06:52:55;99100.04;;;22.25;63.60
59939;BME280;45801;51.810;19.444;2022-08-05T06:55:21;99097.15;;;22.33;62.84
59939;BME280;45801;51.810;19.444;2022-08-05T06:57:47;99093.19;;;22.41;62.32
59939;BME280;45801;51.810;19.444;2022-08-05T07:00:13;99093.66;;;22.50;62.03
59939;BME280;45801;51.810;19.444;2022-08-05T07:02:42;99089.14;;;22.58;61.94
59939;BME280;45801;51.810;19.444;2022-08-05T07:05:09;99087.84;;;22.65;62.28
59939;BME280;45801;51.810;19.444;2022-08-05T07:07:37;99089.02;;;22.71;61.87
59939;BME280;45801;51.810;19.444;2022-08-05T07:10:04;99083.98;;;22.78;61.07
59939;BME280;45801;51.810;19.444;2022-08-05T07:12:30;99078.91;;;22.85;61.92
59939;BME280;45801;51.810;19.444;2022-08-05T07:15:14;99079.40;;;22.91;61.66
59939;BME280;45801;51.810;19.444;2022-08-05T07:17:58;99080.42;;;22.97;61.29
59939;BME280;45801;51.810;19.444;2022-08-05T07:20:24;99080.91;;;23.03;61.47
59939;BME280;45801;51.810;19.444;2022-08-05T07:22:50;99079.60;;;23.07;60.54
59939;BME280;45801;51.810;19.444;2022-08-05T07:25:16;99080.30;;;23.14;61.19
59939;BME280;45801;51.810;19.444;2022-08-05T07:27:42;99076.49;;;23.19;61.07
59939;BME280;45801;51.810;19.444;2022-08-05T07:30:08;99079.45;;;23.24;61.12
59939;BME280;45801;51.810;19.444;2022-08-05T07:32:35;99077.45;;;23.30;60.92
59939;BME280;45801;51.810;19.444;2022-08-05T07:35:09;99083.45;;;23.37;60.79
59939;BME280;45801;51.810;19.444;2022-08-05T07:37:35;99084.08;;;23.45;60.69
59939;BME280;45801;51.810;19.444;2022-08-05T07:40:02;99084.02;;;23.51;59.75
59939;BME280;45801;51.810;19.444;2022-08-05T07:42:28;99086.08;;;23.57;59.87
59939;BME280;45801;51.810;19.444;2022-08-05T07:44:56;99081.38;;;23.62;59.13
59939;BME280;45801;51.810;19.444;2022-08-05T07:47:22;99081.29;;;23.68;59.06
59939;BME280;45801;51.810;19.444;2022-08-05T07:49:48;99077.83;;;23.74;60.08
59939;BME280;45801;51.810;19.444;2022-08-05T07:52:20;99080.96;;;23.80;60.32
59939;BME280;45801;51.810;19.444;2022-08-05T07:54:46;99085.20;;;23.87;59.65
59939;BME280;45801;51.810;19.444;2022-08-05T07:57:12;99080.11;;;23.93;58.95
59939;BME280;45801;51.810;19.444;2022-08-05T07:59:38;99078.08;;;23.99;58.80
59939;BME280;45801;51.810;19.444;2022-08-05T08:02:04;99075.48;;;24.05;58.59
59939;BME280;45801;51.810;19.444;2022-08-05T08:04:32;99073.42;;;24.11;58.82
59939;BME280;45801;51.810;19.444;2022-08-05T08:06:57;99070.30;;;24.17;59.20
59939;BME280;45801;51.810;19.444;2022-08-05T08:09:26;99071.65;;;24.23;58.50
59939;BME280;45801;51.810;19.444;2022-08-05T08:11:52;99073.18;;;24.29;57.78
59939;BME280;45801;51.810;19.444;2022-08-05T08:14:17;99071.30;;;24.35;57.61
59939;BME280;45801;51.810;19.444;2022-08-05T08:16:43;99072.98;;;24.42;57.83
59939;BME280;45801;51.810;19.444;2022-08-05T08:19:09;99072.55;;;24.47;57.77
59939;BME280;45801;51.810;19.444;2022-08-05T08:21:35;99067.60;;;24.54;56.22
59939;BME280;45801;51.810;19.444;2022-08-05T08:24:01;99064.86;;;24.59;56.77
59939;BME280;45801;51.810;19.444;2022-08-05T08:26:27;99066.02;;;24.65;56.93
59939;BME280;45801;51.810;19.444;2022-08-05T08:28:52;99070.40;;;24.71;57.16
59939;BME280;45801;51.810;19.444;2022-08-05T08:31:18;99066.20;;;24.76;55.45
59939;BME280;45801;51.810;19.444;2022-08-05T08:33:44;99067.19;;;24.81;56.41
59939;BME280;45801;51.810;19.444;2022-08-05T08:36:10;99063.83;;;24.88;57.21
59939;BME280;45801;51.810;19.444;2022-08-05T08:38:36;99062.85;;;24.93;57.03
59939;BME280;45801;51.810;19.444;2022-08-05T08:41:05;99065.80;;;24.98;56.71
59939;BME280;45801;51.810;19.444;2022-08-05T08:43:35;99066.23;;;25.04;56.72
59939;BME280;45801;51.810;19.444;2022-08-05T08:46:02;99066.65;;;25.11;55.63
59939;BME280;45801;51.810;19.444;2022-08-05T08:48:31;99068.88;;;25.17;55.25
59939;BME280;45801;51.810;19.444;2022-08-05T08:50:58;99067.86;;;25.22;54.41
59939;BME280;45801;51.810;19.444;2022-08-05T08:53:26;99063.49;;;25.27;54.57
59939;BME280;45801;51.810;19.444;2022-08-05T08:55:53;99066.64;;;25.32;55.04
59939;BME280;45801;51.810;19.444;2022-08-05T08:58:19;99066.87;;;25.39;54.13
59939;BME280;45801;51.810;19.444;2022-08-05T09:00:46;99064.63;;;25.45;54.29
59939;BME280;45801;51.810;19.444;2022-08-05T09:03:13;99060.39;;;25.50;54.99
59939;BME280;45801;51.810;19.444;2022-08-05T09:05:38;99058.15;;;25.54;53.49
59939;BME280;45801;51.810;19.444;2022-08-05T09:08:04;99056.44;;;25.58;54.00
59939;BME280;45801;51.810;19.444;2022-08-05T09:10:30;99052.06;;;25.63;52.47
59939;BME280;45801;51.810;19.444;2022-08-05T09:12:56;99051.95;;;25.68;52.58
59939;BME280;45801;51.810;19.444;2022-08-05T09:15:22;99052.38;;;25.73;51.18
59939;BME280;45801;51.810;19.444;2022-08-05T09:17:49;99051.71;;;25.79;52.91
59939;BME280;45801;51.810;19.444;2022-08-05T09:20:15;99048.90;;;25.85;53.38
59939;BME280;45801;51.810;19.444;2022-08-05T09:23:14;99048.23;;;25.90;52.50
59939;BME280;45801;51.810;19.444;2022-08-05T09:25:44;99040.57;;;25.96;51.27
59939;BME280;45801;51.810;19.444;2022-08-05T09:28:18;99039.05;;;26.02;50.88
59939;BME280;45801;51.810;19.444;2022-08-05T09:30:55;99042.13;;;26.08;52.47
59939;BME280;45801;51.810;19.444;2022-08-05T09:33:47;99040.73;;;26.14;52.02
59939;BME280;45801;51.810;19.444;2022-08-05T09:36:14;99041.29;;;26.21;50.79
59939;BME280;45801;51.810;19.444;2022-08-05T09:38:58;99034.90;;;26.26;49.31
59939;BME280;45801;51.810;19.444;2022-08-05T09:41:25;99036.77;;;26.31;48.91
59939;BME280;45801;51.810;19.444;2022-08-05T09:43:50;99034.82;;;26.37;48.07
59939;BME280;45801;51.810;19.444;2022-08-05T09:48:50;99029.53;;;26.47;48.32
59939;BME280;45801;51.810;19.444;2022-08-05T09:51:32;99027.06;;;26.53;48.21
59939;BME280;45801;51.810;19.444;2022-08-05T09:53:59;99029.79;;;26.59;48.47
59939;BME280;45801;51.810;19.444;2022-08-05T09:56:29;99030.37;;;26.64;47.31
59939;BME280;45801;51.810;19.444;2022-08-05T09:59:02;99034.92;;;26.71;48.95
59939;BME280;45801;51.810;19.444;2022-08-05T10:01:29;99029.71;;;26.77;48.17
59939;BME280;45801;51.810;19.444;2022-08-05T10:04:08;99026.36;;;26.82;47.96
59939;BME280;45801;51.810;19.444;2022-08-05T10:06:53;99028.58;;;26.86;47.18
59939;BME280;45801;51.810;19.444;2022-08-05T10:09:19;99019.33;;;26.90;47.86
59939;BME280;45801;51.810;19.444;2022-08-05T10:11:48;99018.27;;;26.95;47.21
59939;BME280;45801;51.810;19.444;2022-08-05T10:14:22;99015.30;;;27.00;47.03
59939;BME280;45801;51.810;19.444;2022-08-05T10:16:49;99018.71;;;27.06;48.68
59939;BME280;45801;51.810;19.444;2022-08-05T10:19:15;99015.64;;;27.14;48.80
59939;BME280;45801;51.810;19.444;2022-08-05T10:21:42;99005.98;;;27.18;45.96
59939;BME280;45801;51.810;19.444;2022-08-05T10:24:08;99003.33;;;27.23;48.16
59939;BME280;45801;51.810;19.444;2022-08-05T10:26:41;98998.88;;;27.28;47.54
59939;BME280;45801;51.810;19.444;2022-08-05T10:29:08;99001.23;;;27.34;47.82
59939;BME280;45801;51.810;19.444;2022-08-05T10:31:35;99002.13;;;27.41;48.33
59939;BME280;45801;51.810;19.444;2022-08-05T10:34:01;98999.27;;;27.46;47.93
59939;BME280;45801;51.810;19.444;2022-08-05T10:36:28;98996.37;;;27.53;47.02
59939;BME280;45801;51.810;19.444;2022-08-05T10:38:58;98997.13;;;27.58;47.55
59939;BME280;45801;51.810;19.444;2022-08-05T10:41:31;98996.21;;;27.65;46.71
59939;BME280;45801;51.810;19.444;2022-08-05T10:44:04;98994.44;;;27.70;45.80
59939;BME280;45801;51.810;19.444;2022-08-05T10:46:45;98988.20;;;27.74;47.11
59939;BME280;45801;51.810;19.444;2022-08-05T10:49:11;98986.36;;;27.81;47.15
59939;BME280;45801;51.810;19.444;2022-08-05T10:51:50;98989.23;;;27.87;45.62
59939;BME280;45801;51.810;19.444;2022-08-05T10:54:23;98986.92;;;27.92;45.59
59939;BME280;45801;51.810;19.444;2022-08-05T10:56:53;98983.48;;;27.99;45.60
59939;BME280;45801;51.810;19.444;2022-08-05T10:59:27;98980.58;;;28.06;45.83
59939;BME280;45801;51.810;19.444;2022-08-05T11:02:09;98979.80;;;28.13;45.01
59939;BME280;45801;51.810;19.444;2022-08-05T11:04:42;98982.51;;;28.19;43.97
59939;BME280;45801;51.810;19.444;2022-08-05T11:07:08;98973.69;;;28.24;43.50
59939;BME280;45801;51.810;19.444;2022-08-05T11:09:52;98975.36;;;28.27;42.63
59939;BME280;45801;51.810;19.444;2022-08-05T11:15:15;98970.06;;;28.36;41.83
59939;BME280;45801;51.810;19.444;2022-08-05T11:17:42;98969.93;;;28.39;41.58
59939;BME280;45801;51.810;19.444;2022-08-05T11:22:57;98970.84;;;28.50;43.32
59939;BME280;45801;51.810;19.444;2022-08-05T11:25:33;98971.69;;;28.57;43.33
59939;BME280;45801;51.810;19.444;2022-08-05T11:36:45;98973.77;;;28.86;42.65
59939;BME280;45801;51.810;19.444;2022-08-05T11:39:13;98974.66;;;28.91;41.45
59939;BME280;45801;51.810;19.444;2022-08-05T11:41:41;98973.20;;;28.97;43.41
59939;BME280;45801;51.810;19.444;2022-08-05T11:44:14;98969.59;;;29.02;41.79
59939;BME280;45801;51.810;19.444;2022-08-05T11:46:42;98969.66;;;29.05;42.14
59939;BME280;45801;51.810;19.444;2022-08-05T11:49:13;98971.49;;;29.09;39.87
59939;BME280;45801;51.810;19.444;2022-08-05T11:51:43;98967.69;;;29.15;42.14
59939;BME280;45801;51.810;19.444;2022-08-05T11:54:30;98968.17;;;29.21;42.40
59939;BME280;45801;51.810;19.444;2022-08-05T11:56:59;98970.26;;;29.29;41.26
59939;BME280;45801;51.810;19.444;2022-08-05T11:59:29;98971.02;;;29.33;41.09
59939;BME280;45801;51.810;19.444;2022-08-05T12:02:03;98967.60;;;29.38;41.05
59939;BME280;45801;51.810;19.444;2022-08-05T12:04:42;98972.45;;;29.43;42.00
59939;BME280;45801;51.810;19.444;2022-08-05T12:07:13;98973.35;;;29.48;42.67
59939;BME280;45801;51.810;19.444;2022-08-05T12:09:42;98962.82;;;29.54;40.47
59939;BME280;45801;51.810;19.444;2022-08-05T12:12:09;98962.85;;;29.58;41.62
59939;BME280;45801;51.810;19.444;2022-08-05T12:14:39;98961.19;;;29.64;41.19
59939;BME280;45801;51.810;19.444;2022-08-05T12:17:08;98959.02;;;29.69;40.91
59939;BME280;45801;51.810;19.444;2022-08-05T12:20:03;98956.69;;;29.73;41.36
59939;BME280;45801;51.810;19.444;2022-08-05T12:22:31;98952.45;;;29.79;41.89
59939;BME280;45801;51.810;19.444;2022-08-05T12:24:56;98950.72;;;29.83;41.92
59939;BME280;45801;51.810;19.444;2022-08-05T12:27:24;98945.83;;;29.88;42.47
59939;BME280;45801;51.810;19.444;2022-08-05T12:30:07;98941.88;;;29.92;42.43
59939;BME280;45801;51.810;19.444;2022-08-05T12:32:34;98945.09;;;29.97;41.63
59939;BME280;45801;51.810;19.444;2022-08-05T12:35:06;98946.19;;;30.01;41.27
59939;BME280;45801;51.810;19.444;2022-08-05T12:37:33;98947.84;;;30.05;41.23
59939;BME280;45801;51.810;19.444;2022-08-05T12:40:00;98941.34;;;30.09;41.28
59939;BME280;45801;51.810;19.444;2022-08-05T12:42:28;98941.57;;;30.12;39.48
59939;BME280;45801;51.810;19.444;2022-08-05T12:45:04;98937.24;;;30.17;39.03
59939;BME280;45801;51.810;19.444;2022-08-05T12:47:31;98941.19;;;30.22;40.30
59939;BME280;45801;51.810;19.444;2022-08-05T12:49:58;98936.50;;;30.26;39.29
59939;BME280;45801;51.810;19.444;2022-08-05T12:52:24;98936.30;;;30.30;39.83
59939;BME280;45801;51.810;19.444;2022-08-05T12:54:50;98927.89;;;30.33;37.68
59939;BME280;45801;51.810;19.444;2022-08-05T12:57:16;98924.55;;;30.35;38.00
59939;BME280;45801;51.810;19.444;2022-08-05T12:59:56;98924.59;;;30.39;37.59
59939;BME280;45801;51.810;19.444;2022-08-05T13:02:25;98927.80;;;30.40;36.07
59939;BME280;45801;51.810;19.444;2022-08-05T13:04:53;98928.12;;;30.41;36.75
59939;BME280;45801;51.810;19.444;2022-08-05T13:07:21;98923.04;;;30.42;36.00
59939;BME280;45801;51.810;19.444;2022-08-05T13:09:53;98922.02;;;30.44;36.03
59939;BME280;45801;51.810;19.444;2022-08-05T13:12:21;98917.09;;;30.46;35.83
59939;BME280;45801;51.810;19.444;2022-08-05T13:14:50;98917.77;;;30.47;35.85
59939;BME280;45801;51.810;19.444;2022-08-05T13:17:21;98914.50;;;30.47;36.35
59939;BME280;45801;51.810;19.444;2022-08-05T13:20:03;98911.17;;;30.49;37.06
59939;BME280;45801;51.810;19.444;2022-08-05T13:22:31;98910.70;;;30.52;37.33
59939;BME280;45801;51.810;19.444;2022-08-05T13:24:59;98905.52;;;30.46;36.02
59939;BME280;45801;51.810;19.444;2022-08-05T13:27:35;98906.17;;;30.43;37.41